Time;durP1;ratioP1;P1;durP2;ratioP2;P2;SDS_P1;SDS_P2;PMS_P1;PMS_P2;Temp;Humidity;BMP_temperature;BMP_pressure;BME280_temperature;BME280_humidity;BME280_pressure;Samples;Min_cycle;Max_cycle;Signal;HPM_P1;HPM_P2
2022/05/23 00:00:33;;;;;;;4.40;3.98;;;;;;;10.86;100.00;98823.52;1703154;83;21099;-77
2022/05/23 00:02:59;;;;;;;4.28;3.98;;;;;;;10.87;100.00;98825.14;1727918;83;21062;-79
2022/05/23 00:05:26;;;;;;;3.77;3.45;;;;;;;10.84;100.00;98826.20;1727911;83;21540;-79
2022/05/23 00:07:55;;;;;;;3.35;3.10;;;;;;;10.75;100.00;98835.37;1727523;82;21516;-80
2022/05/23 00:10:22;;;;;;;3.05;2.85;;;;;;;10.71;100.00;98836.99;1707684;83;22076;-79
2022/05/23 00:12:49;;;;;;;3.77;3.27;;;;;;;10.68;100.00;98834.05;1727660;82;21559;-80
2022/05/23 00:15:18;;;;;;;4.37;4.08;;;;;;;10.73;100.00;98837.55;1727816;82;20948;-80
2022/05/23 00:17:45;;;;;;;3.90;3.60;;;;;;;10.76;100.00;98834.83;1692636;83;21016;-79
2022/05/23 00:20:14;;;;;;;5.47;4.33;;;;;;;10.76;100.00;98838.33;1726543;82;21097;-88
2022/05/23 00:22:42;;;;;;;12.20;3.98;;;;;;;10.74;100.00;98836.44;1690708;84;21140;-80
2022/05/23 00:25:09;;;;;;;4.85;3.70;;;;;;;10.79;100.00;98838.34;1727884;82;20992;-83
2022/05/23 00:27:39;;;;;;;4.70;4.12;;;;;;;10.88;100.00;98841.55;1727892;82;20893;-87
2022/05/23 00:30:11;;;;;;;3.95;3.65;;;;;;;10.93;100.00;98836.13;1714832;83;21023;-85
2022/05/23 00:35:23;;;;;;;3.95;3.60;;;;;;;10.91;100.00;98845.57;1697517;84;21204;-77
2022/05/23 00:37:52;;;;;;;4.37;3.98;;;;;;;10.97;100.00;98839.11;1727989;83;20945;-77
2022/05/23 00:40:39;;;;;;;4.08;3.77;;;;;;;11.05;100.00;98839.08;1704843;84;21050;-76
2022/05/23 00:43:20;;;;;;;8.63;5.87;;;;;;;11.10;100.00;98835.83;1727685;83;20992;-77
2022/05/23 00:45:55;;;;;;;5.85;3.90;;;;;;;11.15;100.00;98838.51;1728191;82;20945;-76
2022/05/23 00:48:24;;;;;;;4.33;3.92;;;;;;;11.12;100.00;98836.91;1728081;82;21208;-72
2022/05/23 00:50:59;;;;;;;5.08;4.53;;;;;;;11.11;100.00;98837.98;1728158;82;21012;-80
2022/05/23 00:53:44;;;;;;;5.35;3.67;;;;;;;11.08;100.00;98842.02;1728292;83;20981;-76
2022/05/23 00:56:13;;;;;;;4.67;4.30;;;;;;;11.09;100.00;98841.48;1728044;82;21088;-81
2022/05/23 00:58:48;;;;;;;5.80;4.20;;;;;;;11.00;100.00;98842.59;1703411;83;21006;-82
2022/05/23 01:01:18;;;;;;;6.45;4.65;;;;;;;10.86;100.00;98849.08;1726870;81;25337;-82
2022/05/23 01:03:44;;;;;;;7.42;4.65;;;;;;;10.77;100.00;98848.55;1717547;83;20998;-82
2022/05/23 01:06:11;;;;;;;7.17;4.37;;;;;;;10.72;100.00;98856.09;1728327;82;21080;-83
2022/05/23 01:08:39;;;;;;;4.00;3.70;;;;;;;10.68;100.00;98855.56;1727964;82;21197;-80
2022/05/23 01:11:07;;;;;;;5.83;4.30;;;;;;;10.69;100.00;98864.72;1728149;83;21504;-82
2022/05/23 01:13:34;;;;;;;4.40;4.03;;;;;;;10.65;100.00;98867.65;1727714;83;21171;-89
2022/05/23 01:16:02;;;;;;;4.55;4.12;;;;;;;10.62;100.00;98877.61;1727693;83;20976;-77
2022/05/23 01:18:31;;;;;;;4.40;3.87;;;;;;;10.68;100.00;98877.89;1728085;82;21164;-73
2022/05/23 01:21:00;;;;;;;7.83;5.85;;;;;;;10.76;100.00;98877.86;1727851;82;21560;-75
2022/05/23 01:28:40;;;;;;;4.95;4.30;;;;;;;10.98;100.00;98881.62;1797672;79;22691;-81
2022/05/23 01:31:10;;;;;;;6.70;4.80;;;;;;;10.93;100.00;98887.25;1721055;81;20881;-75
2022/05/23 01:33:37;;;;;;;4.70;4.30;;;;;;;10.94;100.00;98885.37;1725319;81;21139;-75
2022/05/23 01:36:07;;;;;;;4.85;4.40;;;;;;;10.93;100.00;98886.47;1751131;81;20964;-75
2022/05/23 01:38:34;;;;;;;8.28;4.65;;;;;;;10.94;100.00;98884.02;1672568;83;20991;-75
2022/05/23 01:41:04;;;;;;;7.10;4.62;;;;;;;10.98;100.00;98885.66;1723034;83;20936;-73
2022/05/23 01:43:31;;;;;;;5.50;5.10;;;;;;;11.03;100.00;98886.98;1722826;83;20994;-73
2022/05/23 01:46:17;;;;;;;4.47;4.17;;;;;;;11.02;100.00;98892.09;1675986;84;21158;-77
2022/05/23 01:49:03;;;;;;;5.10;4.70;;;;;;;10.94;100.00;98894.78;1694257;83;20922;-76
2022/05/23 01:51:30;;;;;;;7.10;5.45;;;;;;;10.83;100.00;98890.52;1675404;83;20948;-78
2022/05/23 01:53:56;;;;;;;7.62;5.33;;;;;;;10.75;100.00;98893.19;1679663;83;21055;-78
2022/05/23 01:56:23;;;;;;;6.10;5.60;;;;;;;10.73;100.00;98893.20;1689848;83;21048;-77
2022/05/23 02:01:37;;;;;;;7.35;5.70;;;;;;;10.69;100.00;98897.52;1684691;84;20961;-80
2022/05/23 02:04:04;;;;;;;6.17;5.58;;;;;;;10.66;100.00;98894.81;1674766;84;21007;-78
2022/05/23 02:06:33;;;;;;;6.75;6.15;;;;;;;10.63;100.00;98899.40;1689830;84;21014;-77
2022/05/23 02:09:01;;;;;;;6.05;5.47;;;;;;;10.59;100.00;98897.52;1678412;84;21568;-77
2022/05/23 02:11:31;;;;;;;7.15;6.47;;;;;;;10.59;100.00;98898.33;1646804;85;22457;-77
2022/05/23 02:14:00;;;;;;;7.12;6.53;;;;;;;10.61;100.00;98910.95;1675143;84;21003;-76
2022/05/23 02:16:30;;;;;;;7.72;7.03;;;;;;;10.59;100.00;98912.30;1664840;86;20975;-77
2022/05/23 02:19:00;;;;;;;7.25;6.65;;;;;;;10.57;100.00;98907.72;1682975;84;21014;-76
2022/05/23 02:21:27;;;;;;;6.33;5.72;;;;;;;10.54;100.00;98910.42;1691337;83;21537;-75
2022/05/23 02:23:54;;;;;;;7.80;5.90;;;;;;;10.52;100.00;98919.28;1693341;84;21194;-75
2022/05/23 02:26:21;;;;;;;6.17;5.70;;;;;;;10.49;100.00;98920.64;1700626;83;20966;-75
2022/05/23 02:28:58;;;;;;;6.83;6.12;;;;;;;10.48;100.00;98914.17;1705091;84;21508;-74
2022/05/23 02:31:27;;;;;;;9.28;5.72;;;;;;;10.50;100.00;98924.14;1717438;83;21541;-75
2022/05/23 02:34:01;;;;;;;7.17;5.85;;;;;;;10.49;100.00;98924.67;1682854;84;21545;-75
2022/05/23 02:36:36;;;;;;;6.10;5.28;;;;;;;10.50;100.00;98921.45;1668004;83;21223;-75
2022/05/23 02:39:04;;;;;;;5.20;4.80;;;;;;;10.50;100.00;98921.45;1661057;86;21067;-75
2022/05/23 02:41:30;;;;;;;6.60;5.87;;;;;;;10.50;100.00;98926.27;1662318;86;21001;-76
2022/05/23 02:43:57;;;;;;;6.47;5.87;;;;;;;10.52;100.00;98923.85;1691705;83;20995;-76
2022/05/23 02:46:24;;;;;;;5.85;5.35;;;;;;;10.54;100.00;98925.21;1668611;84;21035;-76
2022/05/23 02:48:52;;;;;;;6.15;5.72;;;;;;;10.54;100.00;98934.63;1700997;83;21079;-75
2022/05/23 02:51:19;;;;;;;6.80;6.08;;;;;;;10.53;100.00;98928.97;1691946;84;21037;-76
2022/05/23 02:53:48;;;;;;;5.53;4.92;;;;;;;10.45;100.00;98937.02;1691915;83;20963;-75
2022/05/23 02:56:16;;;;;;;5.80;5.33;;;;;;;10.41;100.00;98939.16;1687307;83;20948;-79
2022/05/23 02:58:44;;;;;;;6.20;5.08;;;;;;;10.39;100.00;98937.29;1687330;85;21520;-80
2022/05/23 03:01:11;;;;;;;5.33;4.85;;;;;;;10.39;100.00;98946.70;1687553;85;21241;-79
2022/05/23 03:03:39;;;;;;;6.37;5.35;;;;;;;10.38;100.00;98948.58;1688848;83;21571;-81
2022/05/23 03:06:07;;;;;;;5.72;4.90;;;;;;;10.36;100.00;98945.89;1682521;84;21027;-81
2022/05/23 03:08:34;;;;;;;5.62;5.03;;;;;;;10.36;100.00;98948.02;1716276;83;20931;-81
2022/05/23 03:11:03;;;;;;;7.20;5.78;;;;;;;10.36;100.00;98949.93;1680426;84;21054;-81
2022/05/23 03:13:30;;;;;;;5.87;5.35;;;;;;;10.38;100.00;98956.64;1716558;83;21137;-76
2022/05/23 03:15:57;;;;;;;10.93;5.53;;;;;;;10.41;100.00;98959.31;1676149;84;20947;-75
2022/05/23 03:18:24;;;;;;;7.15;5.97;;;;;;;10.37;100.00;98956.36;1692837;84;21023;-75
2022/05/23 03:21:08;;;;;;;12.47;5.22;;;;;;;10.37;100.00;98958.24;1703519;84;20987;-74
2022/05/23 03:28:55;;;;;;;6.87;5.03;;;;;;;10.35;100.00;98961.22;1601534;87;21007;-75
2022/05/23 03:31:22;;;;;;;6.53;5.92;;;;;;;10.42;100.00;98964.97;1684537;84;21722;-75
2022/05/23 03:33:48;;;;;;;6.75;5.70;;;;;;;10.45;100.00;98964.45;1684488;85;21521;-74
2022/05/23 03:36:15;;;;;;;7.65;5.35;;;;;;;10.47;100.00;98961.76;1689049;84;21046;-75
2022/05/23 03:38:44;;;;;;;7.25;5.15;;;;;;;10.51;100.00;98960.68;1690397;84;21493;-75
2022/05/23 03:41:11;;;;;;;10.68;5.92;;;;;;;10.54;100.00;98957.48;1690275;84;21074;-78
2022/05/23 03:43:37;;;;;;;6.90;5.03;;;;;;;10.57;100.00;98960.16;1694010;84;21627;-78
2022/05/23 03:46:06;;;;;;;6.08;5.58;;;;;;;10.61;100.00;98962.04;1690574;84;21231;-80
2022/05/23 03:48:33;;;;;;;6.70;6.03;;;;;;;10.67;100.00;98962.85;1684569;84;21008;-78
2022/05/23 03:51:00;;;;;;;6.75;6.05;;;;;;;10.70;100.00;98963.11;1684547;85;21037;-78
2022/05/23 03:53:29;;;;;;;6.75;6.15;;;;;;;10.74;100.00;98965.53;1684577;85;20920;-78
2022/05/23 03:55:58;;;;;;;6.40;5.85;;;;;;;10.76;100.00;98963.93;1681229;84;21017;-80
2022/05/23 03:58:26;;;;;;;7.60;6.17;;;;;;;10.75;100.00;98966.34;1671043;85;21478;-78
2022/05/23 04:01:16;;;;;;;6.80;6.20;;;;;;;10.76;100.00;98967.44;1677633;84;21051;-80
2022/05/23 04:03:44;;;;;;;7.42;6.65;;;;;;;10.81;100.00;98970.66;1665236;84;21292;-78
2022/05/23 04:06:11;;;;;;;10.43;7.33;;;;;;;10.83;100.00;98967.98;1689534;84;21076;-78
2022/05/23 04:08:54;;;;;;;6.83;6.12;;;;;;;10.85;100.00;98961.78;1689878;84;21512;-79
2022/05/23 04:11:22;;;;;;;7.60;6.90;;;;;;;10.87;100.00;98968.25;1661344;83;26536;-76
2022/05/23 04:13:49;;;;;;;6.75;6.05;;;;;;;10.85;100.00;98961.78;1674262;85;20993;-79
2022/05/23 04:16:16;;;;;;;7.22;6.60;;;;;;;10.85;100.00;98971.20;1683248;84;21094;-79
2022/05/23 04:18:44;;;;;;;8.53;6.10;;;;;;;10.86;100.00;98968.78;1681875;85;21030;-77
2022/05/23 04:21:11;;;;;;;11.08;6.47;;;;;;;10.89;100.00;98966.88;1682254;85;20994;-78
2022/05/23 04:23:40;;;;;;;11.88;6.30;;;;;;;10.93;100.00;98973.91;1681290;85;21524;-79
2022/05/23 04:26:08;;;;;;;7.58;6.87;;;;;;;10.97;100.00;98979.01;1687229;84;21059;-81
2022/05/23 04:28:39;;;;;;;7.33;6.58;;;;;;;11.02;100.00;98964.21;1710432;82;22150;-78
2022/05/23 04:31:09;;;;;;;9.85;7.20;;;;;;;11.07;100.00;98968.24;1721286;83;21016;-78
2022/05/23 04:36:23;;;;;;;9.23;7.05;;;;;;;11.16;100.00;98972.00;1721386;82;21033;-80
2022/05/23 04:38:49;;;;;;;10.93;9.10;;;;;;;11.19;100.00;98966.06;1721538;83;21079;-78
2022/05/23 04:41:16;;;;;;;8.28;6.78;;;;;;;11.21;100.00;98966.61;1721017;82;21284;-78
2022/05/23 04:43:57;;;;;;;12.15;6.33;;;;;;;11.24;100.00;98962.55;1719431;82;20969;-78
2022/05/23 04:46:26;;;;;;;14.65;7.10;;;;;;;11.25;100.00;98964.98;1720634;83;20994;-79
2022/05/23 04:51:43;;;;;;;8.00;5.40;;;;;;;11.36;100.00;98972.52;1688408;84;21470;-77
2022/05/23 04:54:09;;;;;;;6.78;6.17;;;;;;;11.47;100.00;98966.54;1710926;83;21136;-75
2022/05/23 04:56:37;;;;;;;8.13;6.40;;;;;;;11.50;100.00;98965.48;1692170;83;21006;-75
2022/05/23 04:59:05;;;;;;;7.22;6.22;;;;;;;11.51;100.00;98958.20;1700753;82;21003;-74
2022/05/23 05:01:33;;;;;;;6.58;5.72;;;;;;;11.53;100.00;98960.07;1719480;83;20960;-74
2022/05/23 05:03:59;;;;;;;7.85;7.12;;;;;;;11.55;99.61;98957.39;1720323;83;21022;-73
2022/05/23 05:06:28;;;;;;;8.03;6.33;;;;;;;11.59;99.03;98957.64;1721314;82;21133;-75
2022/05/23 05:08:55;;;;;;;7.03;5.97;;;;;;;11.65;98.62;98956.55;1721104;82;20952;-75
2022/05/23 05:11:22;;;;;;;5.62;5.05;;;;;;;11.71;97.91;98957.58;1721598;83;22318;-73
2022/05/23 05:13:50;;;;;;;6.10;5.60;;;;;;;11.75;96.73;98959.20;1684559;84;21530;-79
2022/05/23 05:16:19;;;;;;;7.50;5.60;;;;;;;11.80;96.12;98960.54;1682993;85;21103;-75
2022/05/23 05:18:46;;;;;;;11.18;6.80;;;;;;;11.90;95.74;98960.50;1684208;85;21799;-74
2022/05/23 05:21:14;;;;;;;10.03;5.80;;;;;;;11.98;95.09;98958.60;1657838;85;20969;-75
2022/05/23 05:23:51;;;;;;;6.95;5.33;;;;;;;12.08;94.46;98967.18;1663514;85;21076;-74
2022/05/23 05:26:20;;;;;;;6.92;6.10;;;;;;;12.14;93.50;98964.16;1681428;85;22114;-75
2022/05/23 05:28:46;;;;;;;8.55;5.47;;;;;;;12.21;92.84;98967.91;1682810;84;21055;-75
2022/05/23 05:31:32;;;;;;;11.38;5.87;;;;;;;12.24;92.39;98964.11;1718025;82;21110;-76
2022/05/23 05:34:09;;;;;;;10.23;6.70;;;;;;;12.31;92.47;98969.74;1722774;82;21008;-74
2022/05/23 05:36:39;;;;;;;12.93;6.20;;;;;;;12.39;92.57;98969.14;1718082;82;21045;-77
2022/05/23 05:39:08;;;;;;;9.60;6.53;;;;;;;12.43;91.89;98969.66;1718059;83;21521;-78
2022/05/23 05:41:40;;;;;;;7.83;6.72;;;;;;;12.49;91.75;98974.48;1718193;83;21024;-74
2022/05/23 05:44:12;;;;;;;6.67;6.00;;;;;;;12.53;91.31;98974.98;1714434;83;22005;-75
2022/05/23 05:46:42;;;;;;;;;;;;;;;12.55;90.62;98978.23;1715983;83;21019;-76
2022/05/23 05:49:15;;;;;;;8.40;6.70;;;;;;;12.60;90.19;98984.12;1712415;82;20477;-79
2022/05/23 05:51:42;;;;;;;6.80;6.17;;;;;;;12.63;89.44;98975.47;1733361;82;21049;-78
2022/05/23 05:54:25;;;;;;;7.30;6.22;;;;;;;12.67;89.54;98975.97;1718803;82;21055;-82
2022/05/23 05:56:59;;;;;;;8.70;6.62;;;;;;;12.78;89.36;98980.75;1717231;83;22159;-81
2022/05/23 05:59:26;;;;;;;9.38;6.85;;;;;;;12.87;89.10;98984.45;1718066;83;20972;-77
2022/05/23 06:01:53;;;;;;;5.47;5.00;;;;;;;12.94;87.26;98980.09;1717942;83;20980;-77
2022/05/23 06:04:19;;;;;;;6.62;6.00;;;;;;;13.00;86.17;98976.25;1714599;83;21012;-76
2022/05/23 06:12:18;;;;;;;7.12;5.58;;;;;;;13.17;82.38;98990.73;1713134;83;20936;-75
2022/05/23 06:14:46;;;;;;;7.22;6.50;;;;;;;13.24;82.09;98990.64;1657593;85;21053;-76
2022/05/23 06:17:12;;;;;;;5.80;4.65;;;;;;;13.31;82.23;98983.58;1685120;83;21032;-75
2022/05/23 06:19:44;;;;;;;7.45;5.17;;;;;;;13.36;81.27;98990.28;1701078;82;21106;-76
2022/05/23 06:22:19;;;;;;;5.55;5.05;;;;;;;13.40;80.31;98984.02;1706902;82;21075;-76
2022/05/23 06:24:54;;;;;;;8.85;5.20;;;;;;;13.42;78.06;98990.50;1717422;82;21065;-76
2022/05/23 06:27:21;;;;;;;7.47;5.45;;;;;;;13.48;79.55;98990.69;1733203;82;21021;-75
2022/05/23 06:30:09;;;;;;;8.75;5.08;;;;;;;13.53;80.26;98990.63;1717176;82;20994;-76
2022/05/23 06:32:43;;;;;;;6.10;5.42;;;;;;;13.56;79.25;98994.13;1733260;82;21040;-78
2022/05/23 06:35:10;;;;;;;7.85;5.05;;;;;;;13.58;79.63;98988.42;1733113;81;21140;-76
2022/05/23 06:37:41;;;;;;;6.12;4.60;;;;;;;13.62;79.59;98990.27;1733390;82;20969;-76
2022/05/23 06:40:12;;;;;;;6.25;4.70;;;;;;;13.68;78.25;98992.38;1718257;82;20956;-75
2022/05/23 06:42:57;;;;;;;8.38;5.22;;;;;;;13.73;76.65;98989.61;1681124;85;20968;-79
2022/05/23 06:45:42;;;;;;;7.25;4.60;;;;;;;13.82;75.95;98988.70;1684772;85;21095;-80
2022/05/23 06:48:26;;;;;;;6.87;5.22;;;;;;;13.91;76.09;98986.96;1692446;82;22066;-80
2022/05/23 06:50:58;;;;;;;4.25;3.85;;;;;;;14.00;75.27;98998.52;1706791;83;20937;-80
2022/05/23 06:53:38;;;;;;;4.08;3.62;;;;;;;14.10;74.04;99010.56;1707012;83;20963;-79
2022/05/23 06:56:07;;;;;;;6.42;3.90;;;;;;;14.14;71.12;99011.05;1711297;83;21013;-75
2022/05/23 06:58:33;;;;;;;7.30;3.70;;;;;;;14.15;68.61;99018.03;1715832;82;21109;-78
2022/05/23 07:01:00;;;;;;;9.00;4.53;;;;;;;14.15;68.36;99002.38;1723331;82;21183;-77
2022/05/23 07:03:28;;;;;;;5.28;4.30;;;;;;;14.16;68.59;99009.38;1708787;83;20968;-75
2022/05/23 07:14:17;;;;;;;7.47;3.85;;;;;;;14.34;68.06;99004.53;1711223;83;21175;-77
2022/05/23 07:16:44;;;;;;;6.08;3.70;;;;;;;14.39;67.59;99005.31;1707453;84;21544;-79
2022/05/23 07:19:12;;;;;;;5.97;3.70;;;;;;;14.42;66.77;98997.17;1707752;82;21097;-77
2022/05/23 07:21:43;;;;;;;5.22;3.08;;;;;;;14.46;64.91;99026.60;1706255;84;21072;-78
2022/05/23 07:24:14;;;;;;;4.90;3.42;;;;;;;14.46;63.32;99005.51;1703287;83;21080;-78
2022/05/23 07:26:42;;;;;;;7.08;3.25;;;;;;;14.44;64.36;99009.84;1695565;83;21620;-74
2022/05/23 07:29:09;;;;;;;3.87;3.47;;;;;;;14.45;64.71;99012.00;1682433;83;20964;-74
2022/05/23 07:31:38;;;;;;;7.87;3.47;;;;;;;14.45;64.24;98995.77;1695760;84;21087;-77
2022/05/23 07:34:05;;;;;;;9.30;3.55;;;;;;;14.43;64.38;99015.57;1695911;84;21129;-79
2022/05/23 07:36:32;;;;;;;8.90;2.70;;;;;;;14.38;64.07;99002.37;1706952;83;21501;-77
2022/05/23 07:39:01;;;;;;;3.75;3.40;;;;;;;14.36;64.70;98996.98;1649276;85;21457;-76
2022/05/23 07:41:43;;;;;;;4.10;3.50;;;;;;;14.37;65.35;98999.41;1709800;83;20980;-78
2022/05/23 07:44:11;;;;;;;4.33;3.25;;;;;;;14.42;65.50;99005.30;1713370;83;21230;-78
2022/05/23 07:46:37;;;;;;;4.10;3.33;;;;;;;14.46;65.78;98998.20;1679899;85;21015;-81
2022/05/23 07:49:05;;;;;;;4.25;3.92;;;;;;;14.51;65.35;98994.61;1712622;82;21078;-79
2022/05/23 07:51:32;;;;;;;4.80;4.33;;;;;;;14.57;65.87;98993.45;1681473;84;21246;-76
2022/05/23 08:02:42;;;;;;;5.35;3.10;;;;;;;14.95;63.73;99006.41;1661111;85;21056;-76
2022/05/23 08:05:12;;;;;;;3.85;3.40;;;;;;;14.97;63.15;99004.19;1661553;86;20988;-80
2022/05/23 08:07:42;;;;;;;4.97;3.15;;;;;;;14.96;63.12;99005.31;1661447;86;21043;-80
2022/05/23 08:10:11;;;;;;;2.87;2.62;;;;;;;15.00;63.03;98998.20;1678324;84;21052;-78
2022/05/23 08:12:38;;;;;;;6.30;3.45;;;;;;;15.07;63.03;98994.00;1717249;83;21008;-74
2022/05/23 08:15:08;;;;;;;4.15;3.72;;;;;;;15.17;62.32;98997.09;1707418;83;21004;-74
2022/05/23 08:17:36;;;;;;;5.33;2.90;;;;;;;15.27;62.42;98991.50;1707319;84;21186;-73
2022/05/23 08:20:06;;;;;;;3.55;2.90;;;;;;;15.38;61.72;98997.56;1709722;82;20996;-76
2022/05/23 08:22:34;;;;;;;3.72;3.05;;;;;;;15.46;61.31;98984.12;1711631;83;21033;-80
2022/05/23 08:25:05;;;;;;;3.30;3.00;;;;;;;15.55;60.53;99001.33;1702181;83;21100;-77
2022/05/23 08:27:35;;;;;;;12.13;3.62;;;;;;;15.61;59.77;98992.55;1707117;83;21561;-80
2022/05/23 08:30:04;;;;;;;3.25;2.95;;;;;;;15.66;60.16;98994.63;1685860;82;21076;-74
2022/05/23 08:32:31;;;;;;;6.78;3.75;;;;;;;15.71;58.56;98996.43;1733115;82;20933;-75
2022/05/23 08:35:02;;;;;;;4.25;3.17;;;;;;;15.78;58.23;98992.75;1708214;83;21018;-71
2022/05/23 08:37:29;;;;;;;6.30;3.00;;;;;;;15.84;58.30;98991.56;1713250;83;21118;-76
2022/05/23 08:39:56;;;;;;;5.40;3.20;;;;;;;15.91;57.57;99003.37;1721266;82;21055;-77
2022/05/23 08:42:57;;;;;;;4.72;3.05;;;;;;;15.99;56.56;98990.45;1713164;83;21032;-77
2022/05/23 08:45:37;;;;;;;3.50;3.20;;;;;;;16.05;54.04;98987.89;1684542;85;21117;-75
2022/05/23 08:48:20;;;;;;;;;;;;;;;16.11;55.22;98979.33;1721175;82;21028;-74
2022/05/23 08:51:16;;;;;;;5.30;3.45;;;;;;;16.21;55.50;98974.83;1732808;82;20179;-76
2022/05/23 08:54:24;;;;;;;5.03;3.95;;;;;;;16.28;54.24;98981.43;1722811;82;21043;-76
2022/05/23 08:57:02;;;;;;;6.78;3.92;;;;;;;16.40;55.63;98981.69;1648509;85;21153;-77
2022/05/23 08:59:38;;;;;;;3.25;2.95;;;;;;;16.50;55.35;98986.09;1697309;82;21057;-77
2022/05/23 09:02:18;;;;;;;3.72;3.42;;;;;;;16.52;54.81;99000.17;1713839;83;21490;-74
2022/05/23 09:04:52;;;;;;;3.77;3.12;;;;;;;16.48;54.62;98997.83;1696638;83;21052;-73
2022/05/23 09:07:33;;;;;;;3.83;2.98;;;;;;;16.42;55.17;98987.63;1716364;82;21015;-73
2022/05/23 09:10:04;;;;;;;2.75;2.50;;;;;;;16.46;54.99;98983.75;1710021;83;21071;-74
2022/05/23 09:12:31;;;;;;;7.33;2.52;;;;;;;16.54;50.95;98978.97;1695959;84;20983;-72
2022/05/23 09:14:58;;;;;;;5.47;2.40;;;;;;;16.65;50.73;99001.27;1714589;83;20993;-75
2022/05/23 09:17:32;;;;;;;2.40;2.20;;;;;;;16.74;46.04;98996.74;1722080;82;20984;-76
2022/05/23 09:20:19;;;;;;;2.42;1.90;;;;;;;16.83;41.94;98988.91;1720800;82;21173;-78
2022/05/23 09:22:51;;;;;;;2.27;2.08;;;;;;;16.93;42.56;98975.61;1688071;83;21964;-75
2022/05/23 09:25:22;;;;;;;4.80;2.22;;;;;;;17.02;42.75;98990.09;1694769;83;20928;-75
2022/05/23 09:28:08;;;;;;;3.55;1.80;;;;;;;17.06;43.81;98980.75;1712541;82;21577;-76
2022/05/23 09:30:36;;;;;;;2.60;2.35;;;;;;;17.05;43.22;98983.22;1716440;82;21044;-75
2022/05/23 09:33:11;;;;;;;2.45;1.87;;;;;;;17.03;37.44;98989.50;1718060;83;21561;-74
2022/05/23 09:35:49;;;;;;;1.65;1.37;;;;;;;17.03;37.56;98982.71;1702929;83;22107;-80
2022/05/23 09:38:33;;;;;;;7.60;2.55;;;;;;;17.06;36.21;98976.12;1722452;82;21109;-75
2022/05/23 09:40:59;;;;;;;6.10;1.85;;;;;;;17.15;36.78;98976.98;1715456;83;21025;-75
2022/05/23 09:52:31;;;;;;;5.33;2.12;;;;;;;17.51;39.92;98986.36;1877534;75;22484;-76
2022/05/23 09:55:03;;;;;;;2.00;1.90;;;;;;;17.49;39.42;98979.65;1870369;75;21306;-73
2022/05/23 09:57:39;;;;;;;2.35;2.15;;;;;;;17.48;38.83;98984.83;1879391;75;21421;-71
2022/05/23 10:00:22;;;;;;;3.58;2.30;;;;;;;17.46;39.45;98978.34;1860723;75;21599;-79
2022/05/23 10:03:13;;;;;;;6.03;2.55;;;;;;;17.46;40.03;98976.98;1828035;77;21014;-84
2022/05/23 10:05:42;;;;;;;2.98;2.15;;;;;;;17.45;40.22;98983.55;1849819;75;20959;-86
2022/05/23 10:08:17;;;;;;;2.45;2.25;;;;;;;17.45;40.68;98979.48;1883289;75;20994;-85
2022/05/23 10:10:56;;;;;;;6.85;2.25;;;;;;;17.49;40.62;98981.01;1860198;75;21243;-81
2022/05/23 10:13:33;;;;;;;5.28;2.20;;;;;;;17.55;40.42;98980.57;1852316;77;20990;-85
2022/05/23 10:16:18;;;;;;;4.40;2.15;;;;;;;17.60;40.49;99000.05;1856532;77;20975;-86
2022/05/23 10:19:01;;;;;;;2.27;2.08;;;;;;;17.59;40.08;98998.45;1857424;75;21004;-82
2022/05/23 10:21:35;;;;;;;2.92;2.72;;;;;;;17.54;39.75;99003.98;1859125;75;20956;-83
2022/05/23 10:24:20;;;;;;;4.85;2.37;;;;;;;17.46;39.78;99000.67;1859188;77;21993;-84
2022/05/23 10:26:54;;;;;;;1.72;1.62;;;;;;;17.38;40.17;98995.41;1864011;75;21027;-78
2022/05/23 10:29:32;;;;;;;1.90;1.80;;;;;;;17.34;40.09;98999.88;1829942;75;20908;-90
2022/05/23 10:32:09;;;;;;;3.40;2.12;;;;;;;17.23;38.88;98996.61;1857591;77;21008;-84
2022/05/23 10:34:49;;;;;;;1.77;1.67;;;;;;;17.17;39.36;98995.12;1852547;75;21489;-83
2022/05/23 10:37:21;;;;;;;2.08;1.57;;;;;;;17.15;37.82;99001.44;1836706;75;22549;-82
2022/05/23 10:42:41;;;;;;;3.22;2.60;;;;;;;17.08;36.43;98997.53;1864675;75;21408;-84
2022/05/23 10:45:36;;;;;;;2.22;1.60;;;;;;;17.14;36.15;99007.98;1829483;77;20953;-84
2022/05/23 10:48:23;;;;;;;;;;;;;;;17.21;36.04;98996.69;1893081;75;21036;-82
2022/05/23 10:51:14;;;;;;;3.62;1.65;;;;;;;17.34;36.36;99001.23;1845116;75;25037;-82
2022/05/23 10:54:03;;;;;;;3.42;2.17;;;;;;;17.43;36.48;99005.61;1845625;77;20956;-85
2022/05/23 10:56:59;;;;;;;6.17;2.00;;;;;;;17.50;38.06;99008.45;1888955;75;20997;-83
2022/05/23 10:59:55;;;;;;;3.50;1.90;;;;;;;17.49;38.88;99004.11;1888252;75;21477;-86
2022/05/23 11:02:45;;;;;;;4.60;2.30;;;;;;;17.48;38.83;98999.23;1831591;77;21078;-87
2022/05/23 11:05:35;;;;;;;1.98;1.87;;;;;;;17.52;38.84;99006.20;1838429;76;21775;-83
2022/05/23 11:08:35;;;;;;;2.37;2.12;;;;;;;17.58;38.12;99015.28;1859233;76;21074;-84
2022/05/23 11:11:17;;;;;;;2.70;2.37;;;;;;;17.59;38.92;98999.80;1837472;77;20964;-77
2022/05/23 11:14:12;;;;;;;2.50;2.27;;;;;;;17.61;39.80;98994.28;1843491;77;21525;-86
2022/05/23 11:17:03;;;;;;;4.70;2.20;;;;;;;17.71;40.50;99009.53;1845943;76;21528;-80
2022/05/23 11:19:53;;;;;;;2.02;1.80;;;;;;;17.84;40.68;99003.98;1879606;75;21946;-81
2022/05/23 11:22:27;;;;;;;3.83;1.98;;;;;;;17.96;40.55;99021.08;1827913;78;21021;-78
2022/05/23 11:25:30;;;;;;;5.78;2.20;;;;;;;17.94;40.44;99007.56;1826798;77;20995;-78
2022/05/23 11:34:36;;;;;;;2.35;2.08;;;;;;;17.86;41.59;99011.84;1765837;81;21264;-78
2022/05/23 11:39:56;;;;;;;4.37;2.17;;;;;;;17.71;41.76;99014.41;1814240;78;20944;-79
2022/05/23 11:42:42;;;;;;;2.70;2.27;;;;;;;17.75;41.72;99005.86;1795072;78;26523;-80
2022/05/23 11:48:41;;;;;;;3.12;1.70;;;;;;;17.73;41.86;99014.11;1798591;78;21289;-79
2022/05/23 11:51:32;;;;;;;3.92;2.35;;;;;;;17.70;42.20;99026.95;1814816;78;21026;-81
2022/05/23 11:54:20;;;;;;;2.85;2.55;;;;;;;17.64;42.39;99015.44;1819579;78;20995;-80
2022/05/23 11:57:04;;;;;;;8.75;2.40;;;;;;;17.60;42.39;99010.34;1795815;79;21517;-81
2022/05/23 11:59:39;;;;;;;2.87;2.05;;;;;;;17.56;42.28;99007.98;1786497;79;21024;-81
2022/05/23 12:02:13;;;;;;;4.58;2.45;;;;;;;17.58;42.58;99013.12;1827490;78;21041;-81
2022/05/23 12:04:55;;;;;;;4.35;2.30;;;;;;;17.59;42.28;99011.48;1807816;78;20964;-78
2022/05/23 12:07:46;;;;;;;6.00;2.60;;;;;;;17.64;42.63;99028.23;1768544;81;21000;-80
2022/05/23 12:10:31;;;;;;;5.72;2.27;;;;;;;17.69;42.73;99024.02;1768993;79;21529;-79
2022/05/23 12:13:20;;;;;;;4.75;2.60;;;;;;;17.71;42.10;99021.21;1781868;80;20960;-73
2022/05/23 12:15:52;;;;;;;3.40;2.35;;;;;;;17.78;41.78;99022.94;1765177;78;21169;-83
2022/05/23 12:18:34;;;;;;;7.95;2.02;;;;;;;17.83;41.19;99027.44;1789412;79;21288;-81
2022/05/23 12:21:29;;;;;;;4.50;2.10;;;;;;;17.84;40.87;99028.47;1783601;79;20964;-91
2022/05/23 12:24:25;;;;;;;3.02;2.27;;;;;;;17.83;41.06;99028.80;1755769;78;21105;-79
2022/05/23 12:26:56;;;;;;;3.35;3.00;;;;;;;17.89;40.89;99036.27;1821845;78;20972;-81
2022/05/23 12:29:36;;;;;;;3.60;2.70;;;;;;;17.96;41.40;99021.64;1780254;79;21117;-79
2022/05/23 12:32:24;;;;;;;5.60;2.15;;;;;;;18.06;41.04;99022.16;1794390;79;21492;-81
2022/05/23 12:34:53;;;;;;;3.17;2.77;;;;;;;18.13;41.16;99013.55;1800655;78;21601;-77
2022/05/23 12:37:34;;;;;;;4.83;2.08;;;;;;;18.24;41.28;99037.42;1816145;78;21602;-77
2022/05/23 12:40:21;;;;;;;4.03;2.85;;;;;;;18.28;40.76;99019.89;1817883;78;21473;-81
2022/05/23 12:43:18;;;;;;;3.92;2.33;;;;;;;18.29;40.78;99020.94;1832688;78;21081;-82
2022/05/23 12:46:05;;;;;;;12.43;2.40;;;;;;;18.38;40.68;99008.70;1817028;78;21461;-80
2022/05/23 12:48:53;;;;;;;2.65;2.35;;;;;;;18.63;40.49;99008.53;1796468;79;21469;-81
2022/05/23 12:51:44;;;;;;;2.85;1.82;;;;;;;18.80;39.00;99013.98;1794022;79;21615;-81
2022/05/23 12:54:28;;;;;;;2.10;1.90;;;;;;;18.95;37.73;99007.25;1776450;80;21505;-83
2022/05/23 12:57:12;;;;;;;2.72;2.00;;;;;;;19.00;37.48;99011.98;1775669;80;22294;-86
2022/05/23 12:59:59;;;;;;;5.25;2.47;;;;;;;18.97;37.64;99010.47;1783710;78;20979;-87
2022/05/23 13:02:37;;;;;;;2.15;2.00;;;;;;;18.90;37.85;99021.84;1704732;78;21109;-89
2022/05/23 13:05:20;;;;;;;3.55;1.87;;;;;;;18.83;37.99;99028.91;1799252;78;20921;-90
2022/05/23 13:08:00;;;;;;;7.45;2.15;;;;;;;18.76;38.17;99028.56;1791304;80;22180;-84